createdAt,value
2018-09-01T00:00:02.482Z,4.17
2018-09-01T00:03:00.376Z,5.13
2018-09-01T00:05:58.067Z,3.33
2018-09-01T00:08:55.784Z,3.90
2018-09-01T00:11:53.483Z,3.97
2018-09-01T00:14:51.317Z,3.67
2018-09-01T00:17:48.945Z,3.20
2018-09-01T00:20:46.626Z,3.67
2018-09-01T00:23:44.619Z,3.33
2018-09-01T00:26:42.286Z,3.97
2018-09-01T00:29:40.021Z,3.27
2018-09-01T00:32:37.648Z,3.40
2018-09-01T00:35:35.183Z,3.43
2018-09-01T00:38:38.915Z,3.73
2018-09-01T00:41:36.607Z,3.17
2018-09-01T00:44:34.362Z,3.53
2018-09-01T00:47:31.814Z,3.50
2018-09-01T00:50:29.556Z,3.40
2018-09-01T00:53:27.458Z,2.70
2018-09-01T00:56:25.330Z,3.17
2018-09-01T00:59:22.986Z,3.27
2018-09-01T01:02:20.567Z,2.87
2018-09-01T01:05:18.203Z,2.93
2018-09-01T01:08:15.766Z,2.83
2018-09-01T01:11:13.675Z,2.87
2018-09-01T01:14:11.508Z,3.17
2018-09-01T01:17:09.248Z,2.83
2018-09-01T01:20:06.986Z,2.40
2018-09-01T01:23:04.764Z,3.07
2018-09-01T01:26:02.376Z,2.77
2018-09-01T01:29:00.177Z,3.07
2018-09-01T01:31:58.050Z,3.10
2018-09-01T01:34:56.044Z,2.83
2018-09-01T01:37:53.645Z,2.80
2018-09-01T01:40:51.312Z,2.80
2018-09-01T01:43:49.006Z,2.40
2018-09-01T01:46:46.657Z,2.57
2018-09-01T01:49:44.121Z,2.33
2018-09-01T01:52:41.623Z,2.43
2018-09-01T01:55:39.240Z,2.50
2018-09-01T01:58:37.207Z,2.80
2018-09-01T02:01:35.143Z,3.20
2018-09-01T02:04:33.307Z,2.40
2018-09-01T02:07:31.025Z,3.20
2018-09-01T02:10:28.947Z,2.60
2018-09-01T02:13:26.777Z,2.83
2018-09-01T02:16:24.394Z,3.73
2018-09-01T02:19:22.362Z,2.67
2018-09-01T02:22:20.256Z,3.30
2018-09-01T02:25:17.941Z,2.40
2018-09-01T02:28:16.026Z,3.23
2018-09-01T02:31:13.830Z,3.00
2018-09-01T02:34:43.018Z,2.80
2018-09-01T02:37:40.542Z,2.80
2018-09-01T02:40:38.314Z,2.97
2018-09-01T02:43:35.884Z,2.83
2018-09-01T02:46:33.635Z,2.70
2018-09-01T02:49:31.534Z,3.20
2018-09-01T02:52:29.197Z,2.97
2018-09-01T02:55:26.992Z,3.33
2018-09-01T02:58:24.594Z,4.80
2018-09-01T03:01:28.296Z,3.50
2018-09-01T03:04:26.040Z,3.20
2018-09-01T03:07:23.639Z,3.27
2018-09-01T03:10:21.452Z,3.47
2018-09-01T03:13:19.143Z,3.30
2018-09-01T03:16:17.063Z,3.30
2018-09-01T03:19:15.903Z,3.20
2018-09-01T03:22:13.570Z,4.60
2018-09-01T03:25:11.446Z,3.40
2018-09-01T03:28:09.149Z,3.53
2018-09-01T03:31:06.837Z,2.90
2018-09-01T03:34:05.282Z,3.63
2018-09-01T03:37:04.052Z,3.43
2018-09-01T03:40:01.854Z,3.10
2018-09-01T03:43:00.362Z,2.90
2018-09-01T03:45:58.378Z,2.87
2018-09-01T03:48:56.265Z,3.47
2018-09-01T03:51:54.020Z,3.13
2018-09-01T03:54:51.891Z,3.50
2018-09-01T03:57:49.420Z,2.90
2018-09-01T04:00:47.103Z,3.80
2018-09-01T04:03:44.819Z,3.00
2018-09-01T04:06:42.587Z,3.30
2018-09-01T04:09:40.501Z,3.83
2018-09-01T04:12:38.134Z,3.30
2018-09-01T04:15:35.951Z,3.63
2018-09-01T04:18:33.594Z,3.00
2018-09-01T04:21:31.145Z,4.13
2018-09-01T04:24:28.780Z,3.87
2018-09-01T04:27:26.551Z,3.87
2018-09-01T04:30:24.289Z,4.20
2018-09-01T04:33:21.956Z,3.60
2018-09-01T04:36:19.634Z,4.57
2018-09-01T04:39:18.547Z,4.33
2018-09-01T04:42:16.211Z,4.60
2018-09-01T04:45:13.850Z,4.83
2018-09-01T04:48:11.456Z,4.43
2018-09-01T04:51:09.143Z,4.77
2018-09-01T04:54:06.999Z,5.17
2018-09-01T04:57:05.553Z,4.83
2018-09-01T05:00:03.352Z,5.10
2018-09-01T05:03:01.917Z,4.47
2018-09-01T05:05:59.765Z,4.93
2018-09-01T05:08:58.578Z,4.83
2018-09-01T05:11:57.223Z,4.77
2018-09-01T05:14:55.763Z,5.10
2018-09-01T05:17:53.419Z,5.53
2018-09-01T05:20:51.329Z,5.00
2018-09-01T05:23:49.046Z,5.00
2018-09-01T05:26:46.684Z,5.87
2018-09-01T05:29:44.684Z,5.33
2018-09-01T05:32:42.237Z,5.93
2018-09-01T05:35:41.084Z,5.27
2018-09-01T05:38:38.853Z,6.20
2018-09-01T05:41:37.598Z,6.37
2018-09-01T05:44:35.068Z,7.00
2018-09-01T05:47:32.874Z,8.57
2018-09-01T05:50:30.534Z,6.20
2018-09-01T05:53:28.275Z,5.80
2018-09-01T05:56:25.973Z,7.67
2018-09-01T05:59:23.609Z,7.17
2018-09-01T06:02:21.319Z,6.10
2018-09-01T06:05:19.038Z,5.60
2018-09-01T06:08:16.722Z,6.50
2018-09-01T06:11:14.483Z,6.00
2018-09-01T06:14:12.338Z,5.70
2018-09-01T06:17:10.261Z,6.70
2018-09-01T06:20:07.843Z,6.50
2018-09-01T06:23:05.451Z,7.27
2018-09-01T06:26:03.191Z,6.40
2018-09-01T06:29:05.079Z,5.57
2018-09-01T06:32:05.836Z,6.30
2018-09-01T06:35:03.597Z,6.10
2018-09-01T06:38:02.183Z,6.03
2018-09-01T06:40:59.810Z,5.37
2018-09-01T06:43:57.647Z,5.57
2018-09-01T06:46:55.569Z,6.13
2018-09-01T06:49:53.154Z,4.83
2018-09-01T06:52:50.988Z,5.50
2018-09-01T06:55:48.597Z,6.00
2018-09-01T06:58:46.497Z,5.77
2018-09-01T07:01:44.392Z,5.33
2018-09-01T07:04:42.294Z,5.30
2018-09-01T07:07:40.132Z,5.13
2018-09-01T07:10:38.001Z,5.43
2018-09-01T07:13:35.682Z,5.00
2018-09-01T07:16:33.346Z,5.07
2018-09-01T07:19:31.063Z,5.40
2018-09-01T07:22:29.014Z,4.53
2018-09-01T07:25:26.847Z,5.43
2018-09-01T07:28:25.681Z,4.83
2018-09-01T07:31:23.518Z,6.10
2018-09-01T07:34:21.101Z,5.73
2018-09-01T07:37:19.795Z,4.70
2018-09-01T07:40:17.655Z,5.00
2018-09-01T07:43:15.421Z,5.57
2018-09-01T07:46:13.098Z,4.63
2018-09-01T07:49:10.832Z,5.70
2018-09-01T07:52:08.809Z,5.33
2018-09-01T07:55:06.577Z,4.43
2018-09-01T07:58:04.636Z,5.67
2018-09-01T08:01:02.162Z,4.97
2018-09-01T08:03:59.972Z,4.77
2018-09-01T08:06:58.708Z,4.60
2018-09-01T08:09:56.391Z,4.60
2018-09-01T08:12:54.135Z,5.60
2018-09-01T08:15:51.876Z,4.50
2018-09-01T08:18:49.466Z,4.03
2018-09-01T08:21:47.441Z,4.50
2018-09-01T08:24:45.267Z,3.87
2018-09-01T08:27:43.005Z,4.27
2018-09-01T08:30:40.823Z,3.10
2018-09-01T08:33:38.535Z,3.53
2018-09-01T08:36:36.436Z,3.13
2018-09-01T08:39:34.110Z,3.43
2018-09-01T08:42:32.544Z,3.57
2018-09-01T08:45:30.618Z,3.63
2018-09-01T08:48:28.655Z,3.47
2018-09-01T08:51:26.273Z,3.17
2018-09-01T08:54:23.995Z,2.90
2018-09-01T08:57:22.163Z,3.80
2018-09-01T09:00:19.635Z,3.13
2018-09-01T09:03:17.468Z,3.07
2018-09-01T09:06:15.208Z,3.27
2018-09-01T09:09:12.768Z,3.40
2018-09-01T09:12:10.487Z,3.20
2018-09-01T09:15:08.106Z,3.13
2018-09-01T09:18:06.864Z,3.17
2018-09-01T09:21:04.731Z,3.90
2018-09-01T09:24:02.686Z,3.47
2018-09-01T09:27:01.363Z,2.70
2018-09-01T09:29:59.269Z,3.57
2018-09-01T09:32:57.067Z,3.10
2018-09-01T09:35:54.998Z,2.60
2018-09-01T09:38:52.636Z,2.83
2018-09-01T09:41:50.295Z,3.40
2018-09-01T09:44:48.048Z,3.20
2018-09-01T09:47:45.770Z,3.17
2018-09-01T09:50:43.574Z,3.10
2018-09-01T09:53:41.431Z,2.90
2018-09-01T09:56:39.223Z,2.70
2018-09-01T09:59:37.067Z,3.07
2018-09-01T10:02:34.864Z,3.10
2018-09-01T10:05:32.753Z,3.23
2018-09-01T10:08:30.292Z,2.90
2018-09-01T10:11:27.978Z,2.97
2018-09-01T10:14:25.579Z,2.77
2018-09-01T10:17:23.255Z,3.10
2018-09-01T10:20:21.085Z,3.67
2018-09-01T10:23:18.900Z,3.50
2018-09-01T10:26:16.650Z,2.97
2018-09-01T10:29:14.395Z,3.10
2018-09-01T10:32:12.081Z,3.10
2018-09-01T10:35:10.052Z,3.03
2018-09-01T10:38:07.627Z,2.80
2018-09-01T10:41:05.344Z,2.40
2018-09-01T10:44:03.079Z,3.30
2018-09-01T10:47:00.933Z,2.60
2018-09-01T10:49:58.625Z,3.27
2018-09-01T10:52:57.383Z,3.73
2018-09-01T10:55:55.164Z,3.73
2018-09-01T10:58:52.983Z,3.70
2018-09-01T11:01:50.615Z,3.37
2018-09-01T11:04:48.357Z,3.03
2018-09-01T11:07:46.155Z,3.17
2018-09-01T11:10:44.183Z,3.30
2018-09-01T11:13:41.948Z,3.27
2018-09-01T11:16:39.595Z,2.77
2018-09-01T11:19:37.256Z,3.10
2018-09-01T11:22:34.885Z,3.40
2018-09-01T11:25:32.797Z,3.13
2018-09-01T11:28:30.603Z,2.97
2018-09-01T11:31:28.391Z,3.20
2018-09-01T11:34:26.003Z,3.30
2018-09-01T11:37:23.658Z,3.37
2018-09-01T11:40:21.346Z,2.90
2018-09-01T11:43:18.958Z,2.83
2018-09-01T11:46:16.595Z,3.40
2018-09-01T11:49:14.242Z,3.60
2018-09-01T11:52:12.714Z,2.60
2018-09-01T11:55:09.932Z,3.20
2018-09-01T11:58:08.735Z,2.70
2018-09-01T12:01:07.433Z,2.87
2018-09-01T12:04:05.327Z,3.00
2018-09-01T12:07:03.280Z,2.80
2018-09-01T12:10:01.511Z,2.30
2018-09-01T12:12:59.246Z,3.40
2018-09-01T12:15:56.930Z,2.57
2018-09-01T12:18:55.037Z,3.07
2018-09-01T12:21:52.502Z,2.53
2018-09-01T12:24:50.339Z,2.80
2018-09-01T12:27:48.058Z,3.60
2018-09-01T12:30:45.752Z,2.60
2018-09-01T12:33:43.495Z,2.97
2018-09-01T12:36:41.163Z,3.00
2018-09-01T12:39:38.904Z,2.60
2018-09-01T12:42:36.347Z,2.93
2018-09-01T12:45:33.963Z,2.90
2018-09-01T12:48:31.580Z,3.27
2018-09-01T12:51:29.271Z,3.00
2018-09-01T12:54:26.883Z,2.60
2018-09-01T12:57:25.776Z,3.10
2018-09-01T13:00:24.594Z,2.97
2018-09-01T13:03:22.155Z,3.10
2018-09-01T13:06:19.910Z,2.83
2018-09-01T13:09:17.772Z,2.53
2018-09-01T13:12:15.561Z,2.97
2018-09-01T13:15:13.197Z,2.83
2018-09-01T13:18:10.711Z,2.80
2018-09-01T13:21:08.258Z,2.63
2018-09-01T13:24:05.860Z,3.53
2018-09-01T13:27:03.617Z,3.37
2018-09-01T13:30:01.440Z,2.53
2018-09-01T13:32:59.081Z,2.97
2018-09-01T13:35:56.784Z,2.60
2018-09-01T13:38:54.632Z,2.50
2018-09-01T13:41:52.573Z,3.00
2018-09-01T13:47:53.774Z,3.23
2018-09-01T13:50:51.409Z,2.53
2018-09-01T13:53:49.175Z,3.10
2018-09-01T13:56:46.891Z,2.63
2018-09-01T13:59:44.692Z,3.10
2018-09-01T14:02:42.422Z,2.63
2018-09-01T14:05:40.105Z,2.90
2018-09-01T14:08:39.231Z,2.80
2018-09-01T14:11:36.909Z,2.47
2018-09-01T14:14:34.841Z,4.10
2018-09-01T14:17:33.575Z,5.73
2018-09-01T14:20:31.395Z,3.20
2018-09-01T14:23:29.031Z,2.87
2018-09-01T14:26:27.815Z,3.40
2018-09-01T14:29:25.628Z,2.77
2018-09-01T14:32:23.366Z,3.13
2018-09-01T14:35:21.083Z,2.87
2018-09-01T14:38:18.782Z,2.80
2018-09-01T14:41:16.660Z,2.70
2018-09-01T14:44:14.569Z,2.60
2018-09-01T14:47:12.137Z,2.47
2018-09-01T14:50:10.124Z,3.03
2018-09-01T14:53:07.778Z,2.80
2018-09-01T14:56:05.383Z,2.63
2018-09-01T14:59:04.018Z,3.67
2018-09-01T15:02:01.653Z,3.77
2018-09-01T15:04:59.370Z,3.63
2018-09-01T15:07:57.615Z,3.83
2018-09-01T15:10:54.902Z,2.80
2018-09-01T15:13:52.630Z,3.70
2018-09-01T15:16:50.311Z,3.43
2018-09-01T15:19:48.147Z,3.37
2018-09-01T15:22:45.980Z,3.40
2018-09-01T15:25:43.655Z,3.13
2018-09-01T15:28:41.255Z,3.80
2018-09-01T15:31:38.955Z,4.53
2018-09-01T15:34:36.871Z,5.00
2018-09-01T15:37:34.736Z,4.00
2018-09-01T15:40:32.355Z,4.37
2018-09-01T15:43:30.068Z,4.43
2018-09-01T15:46:27.950Z,4.10
2018-09-01T15:49:25.535Z,3.17
2018-09-01T15:52:32.259Z,4.20
2018-09-01T15:55:29.983Z,3.70
2018-09-01T15:58:27.643Z,3.77
2018-09-01T16:01:25.385Z,2.30
2018-09-01T16:04:23.020Z,2.73
2018-09-01T16:07:20.742Z,3.07
2018-09-01T16:10:18.311Z,3.10
2018-09-01T16:13:16.060Z,3.40
2018-09-01T16:16:13.757Z,3.67
2018-09-01T16:19:11.648Z,3.47
2018-09-01T16:22:09.375Z,4.13
2018-09-01T16:25:07.232Z,4.60
2018-09-01T16:28:05.016Z,4.00
2018-09-01T16:31:03.641Z,3.43
2018-09-01T16:34:01.353Z,3.50
2018-09-01T16:36:59.166Z,3.07
2018-09-01T16:39:57.185Z,3.23
2018-09-01T16:42:54.798Z,3.20
2018-09-01T16:45:52.471Z,2.83
2018-09-01T16:48:50.090Z,7.07
2018-09-01T16:51:47.998Z,3.33
2018-09-01T16:54:45.716Z,3.83
2018-09-01T16:57:43.532Z,4.63
2018-09-01T17:00:41.282Z,3.43
2018-09-01T17:03:38.814Z,3.30
2018-09-01T17:06:36.444Z,3.57
2018-09-01T17:09:34.827Z,3.30
2018-09-01T17:12:32.384Z,3.80
2018-09-01T17:15:29.930Z,3.77
2018-09-01T17:18:27.559Z,4.13
2018-09-01T17:21:26.178Z,5.70
2018-09-01T17:24:23.935Z,4.33
2018-09-01T17:27:21.599Z,5.33
2018-09-01T17:30:20.130Z,3.43
2018-09-01T17:33:17.814Z,4.50
2018-09-01T17:36:16.627Z,3.73
2018-09-01T17:39:14.325Z,4.60
2018-09-01T17:42:11.879Z,6.17
2018-09-01T17:45:09.671Z,4.00
2018-09-01T17:48:07.318Z,3.50
2018-09-01T17:51:06.077Z,2.87
2018-09-01T17:54:03.880Z,4.30
2018-09-01T17:57:01.603Z,5.07
2018-09-01T17:59:59.261Z,6.07
2018-09-01T18:02:56.964Z,3.63
2018-09-01T18:05:54.610Z,4.37
2018-09-01T18:08:52.482Z,4.87
2018-09-01T18:11:50.183Z,4.40
2018-09-01T18:14:48.172Z,3.00
2018-09-01T18:17:46.595Z,5.97
2018-09-01T18:20:44.507Z,4.50
2018-09-01T18:23:42.277Z,3.90
2018-09-01T18:26:46.930Z,5.33
2018-09-01T18:29:44.691Z,6.80
2018-09-01T18:32:42.379Z,5.03
2018-09-01T18:35:40.175Z,4.93
2018-09-01T18:38:37.985Z,4.00
2018-09-01T18:41:35.588Z,4.80
2018-09-01T18:44:33.398Z,3.47
2018-09-01T18:47:31.141Z,4.50
2018-09-01T18:50:28.784Z,4.97
2018-09-01T18:53:26.487Z,3.60
2018-09-01T18:56:24.238Z,4.13
2018-09-01T18:59:21.969Z,4.20
2018-09-01T19:02:19.646Z,4.10
2018-09-01T19:05:21.692Z,3.73
2018-09-01T19:08:20.407Z,3.40
2018-09-01T19:11:18.534Z,4.03
2018-09-01T19:14:16.332Z,3.93
2018-09-01T19:17:13.940Z,4.57
2018-09-01T19:20:11.788Z,4.03
2018-09-01T19:23:09.610Z,4.87
2018-09-01T19:26:07.402Z,5.50
2018-09-01T19:29:04.962Z,4.50
2018-09-01T19:32:02.841Z,6.57
2018-09-01T19:35:00.813Z,5.13
2018-09-01T19:37:58.379Z,8.30
2018-09-01T19:40:56.009Z,7.23
2018-09-01T19:43:53.687Z,6.00
2018-09-01T19:46:51.381Z,4.53
2018-09-01T19:49:48.981Z,4.67
2018-09-01T19:52:46.667Z,5.07
2018-09-01T19:55:44.509Z,6.23
2018-09-01T19:58:42.483Z,8.03
2018-09-01T20:01:40.359Z,5.77
2018-09-01T20:04:38.036Z,5.60
2018-09-01T20:07:36.196Z,6.20
2018-09-01T20:10:33.451Z,3.90
2018-09-01T20:13:31.349Z,4.13
2018-09-01T20:16:29.004Z,4.67
2018-09-01T20:19:26.857Z,5.10
2018-09-01T20:22:24.494Z,4.20
2018-09-01T20:25:22.271Z,8.13
2018-09-01T20:28:20.943Z,5.23
2018-09-01T20:31:19.743Z,5.93
2018-09-01T20:34:17.547Z,4.20
2018-09-01T20:37:15.090Z,4.37
2018-09-01T20:40:12.982Z,5.13
2018-09-01T20:43:10.867Z,4.47
2018-09-01T20:46:08.601Z,5.50
2018-09-01T20:49:06.444Z,4.77
2018-09-01T20:52:04.497Z,4.90
2018-09-01T20:55:02.158Z,7.73
2018-09-01T20:57:59.958Z,4.53
2018-09-01T21:00:57.731Z,5.33
2018-09-01T21:03:55.619Z,7.30
2018-09-01T21:06:53.461Z,4.50
2018-09-01T21:09:51.080Z,4.83
2018-09-01T21:12:48.881Z,3.73
2018-09-01T21:15:46.709Z,4.53
2018-09-01T21:18:44.519Z,4.63
2018-09-01T21:21:42.429Z,5.10
2018-09-01T21:24:40.267Z,4.60
2018-09-01T21:27:39.186Z,4.17
2018-09-01T21:30:37.155Z,4.60
2018-09-01T21:33:34.879Z,7.23
2018-09-01T21:36:33.635Z,4.93
2018-09-01T21:39:31.307Z,4.73
2018-09-01T21:42:28.992Z,7.23
2018-09-01T21:45:26.786Z,6.90
2018-09-01T21:48:24.488Z,8.03
2018-09-01T21:51:23.334Z,6.83
2018-09-01T21:54:20.871Z,8.63
2018-09-01T21:57:18.757Z,6.40
2018-09-01T22:00:16.542Z,5.60
2018-09-01T22:03:14.355Z,4.90
2018-09-01T22:06:12.180Z,10.30
2018-09-01T22:09:09.397Z,4.30
2018-09-01T22:12:07.366Z,5.57
2018-09-01T22:15:05.046Z,4.90
2018-09-01T22:18:03.009Z,5.00
2018-09-01T22:21:01.812Z,4.87
2018-09-01T22:23:59.682Z,4.80
2018-09-01T22:26:57.368Z,4.60
2018-09-01T22:29:55.437Z,6.40
2018-09-01T22:32:53.910Z,4.53
2018-09-01T22:35:51.878Z,4.90
2018-09-01T22:38:49.566Z,4.67
2018-09-01T22:41:47.334Z,5.30
2018-09-01T22:44:46.197Z,4.70
2018-09-01T22:47:45.025Z,5.13
2018-09-01T22:50:42.618Z,4.47
2018-09-01T22:53:40.117Z,5.33
2018-09-01T22:56:37.855Z,5.30
2018-09-01T22:59:35.683Z,5.13
2018-09-01T23:02:33.396Z,5.10
2018-09-01T23:05:31.114Z,4.90
2018-09-01T23:08:29.161Z,4.73
2018-09-01T23:11:26.900Z,4.63
2018-09-01T23:14:24.493Z,5.00
2018-09-01T23:17:22.230Z,4.67
2018-09-01T23:20:27.140Z,4.57
2018-09-01T23:23:25.148Z,5.00
2018-09-01T23:26:22.978Z,4.83
2018-09-01T23:29:20.606Z,5.53
2018-09-01T23:32:18.305Z,5.40
2018-09-01T23:35:16.116Z,5.30
2018-09-01T23:38:13.792Z,5.10
2018-09-01T23:41:11.633Z,5.43
2018-09-01T23:44:09.435Z,6.77
2018-09-01T23:47:08.113Z,6.37
2018-09-01T23:50:05.874Z,6.43
2018-09-01T23:53:03.546Z,5.40
2018-09-01T23:56:01.274Z,5.83
2018-09-01T23:58:58.984Z,5.27
